Time;durP1;ratioP1;P1;durP2;ratioP2;P2;SDS_P1;SDS_P2;PMS_P1;PMS_P2;Temp;Humidity;BMP_temperature;BMP_pressure;BME280_temperature;BME280_humidity;BME280_pressure;Samples;Min_cycle;Max_cycle;Signal;HPM_P1;HPM_P2
2022/01/15 00:01:00;;;;;;;1.69;0.69;;;;;;;;;;362539;145;858779;-61
2022/01/15 00:02:02;;;;;;;4.24;1.01;;;;;;;;;;364450;144;866197;-61
2022/01/15 00:03:04;;;;;;;2.31;0.75;;;;;;;;;;364264;144;864799;-61
2022/01/15 00:04:06;;;;;;;2.39;0.85;;;;;;;;;;361919;144;857303;-62
2022/01/15 00:05:08;;;;;;;2.08;0.69;;;;;;;;;;362071;143;860613;-61
2022/01/15 00:06:11;;;;;;;4.34;0.85;;;;;;;;;;366183;144;866676;-60
2022/01/15 00:07:13;;;;;;;2.09;1.00;;;;;;;;;;366467;144;858554;-62
2022/01/15 00:08:14;;;;;;;2.64;0.94;;;;;;;;;;367774;145;865048;-61
2022/01/15 00:09:16;;;;;;;1.38;0.81;;;;;;;;;;367303;143;862239;-62
2022/01/15 00:22:53;;;;;;;1.93;0.68;;;;;;;2.06;49.00;98547.08;370470;143;880577;-59
2022/01/15 00:23:55;;;;;;;1.55;0.79;;;;;;;1.84;49.61;98539.33;363840;146;857240;-59
2022/01/15 00:24:57;;;;;;;2.64;0.71;;;;;;;1.56;50.79;98540.03;363292;147;865394;-59
2022/01/15 00:25:59;;;;;;;2.65;0.77;;;;;;;1.89;50.06;98535.09;371998;141;864930;-59
2022/01/15 00:27:00;;;;;;;2.94;0.80;;;;;;;;;;371583;143;865514;-59
2022/01/15 00:28:02;;;;;;;2.86;1.02;;;;;;;;;;369971;143;857201;-59
2022/01/15 00:29:04;;;;;;;3.04;0.56;;;;;;;;;;371520;144;858561;-59
2022/01/15 00:30:06;;;;;;;4.18;0.73;;;;;;;;;;370784;142;857142;-59
2022/01/15 00:31:08;;;;;;;2.75;0.85;;;;;;;;;;370293;143;864807;-59
2022/01/15 00:32:10;;;;;;;1.85;0.94;;;;;;;;;;368600;144;859063;-59
2022/01/15 00:33:11;;;;;;;3.41;0.87;;;;;;;;;;366380;144;865139;-59
2022/01/15 00:34:13;;;;;;;9.41;0.89;;;;;;;;;;364482;144;864934;-59
2022/01/15 00:35:15;;;;;;;2.82;0.78;;;;;;;;;;365284;145;859983;-59
2022/01/15 00:36:17;;;;;;;3.01;0.92;;;;;;;;;;366318;144;866589;-59
2022/01/15 00:37:19;;;;;;;2.61;0.75;;;;;;;;;;364489;145;857266;-59
2022/01/15 00:38:20;;;;;;;4.14;0.90;;;;;;;;;;365700;145;858970;-59
2022/01/15 00:39:22;;;;;;;2.51;1.04;;;;;;;;;;365153;145;860120;-59
2022/01/15 00:40:24;;;;;;;2.54;0.91;;;;;;;;;;365763;144;858769;-59
2022/01/15 00:41:27;;;;;;;3.14;0.75;;;;;;;;;;363836;144;859431;-59
2022/01/15 00:42:30;;;;;;;4.24;0.87;;;;;;;;;;365167;144;857192;-61
2022/01/15 00:43:31;;;;;;;3.67;0.76;;;;;;;;;;364084;144;865102;-61
2022/01/15 00:44:33;;;;;;;1.35;0.69;;;;;;;;;;365011;145;859071;-60
2022/01/15 00:45:34;;;;;;;4.55;0.61;;;;;;;;;;365750;144;864723;-61
2022/01/15 00:46:36;;;;;;;7.86;0.88;;;;;;;;;;365542;144;857246;-61
2022/01/15 00:47:38;;;;;;;2.41;0.88;;;;;;;;;;364427;145;864690;-61
2022/01/15 00:48:39;;;;;;;5.51;0.84;;;;;;;;;;364927;145;857244;-61
2022/01/15 00:49:41;;;;;;;3.95;0.74;;;;;;;;;;365314;144;859195;-58
2022/01/15 00:50:43;;;;;;;3.39;0.80;;;;;;;;;;364435;145;863580;-60
2022/01/15 00:51:44;;;;;;;2.24;0.89;;;;;;;;;;366518;144;864975;-59
2022/01/15 00:52:46;;;;;;;2.16;0.80;;;;;;;;;;366136;144;864210;-59
2022/01/15 00:53:47;;;;;;;1.14;0.69;;;;;;;;;;364790;144;857101;-61
2022/01/15 00:54:49;;;;;;;3.29;0.76;;;;;;;;;;365776;144;859444;-61
2022/01/15 00:55:50;;;;;;;1.99;0.62;;;;;;;;;;364189;144;858217;-61
2022/01/15 00:56:52;;;;;;;1.96;0.73;;;;;;;;;;366242;144;857403;-61
2022/01/15 01:10:09;;;;;;;1.54;0.81;;;;;;;1.42;50.45;98567.98;369532;142;874666;-59
2022/01/15 01:11:10;;;;;;;2.78;0.72;;;;;;;1.47;50.23;98568.03;361277;145;857182;-60
2022/01/15 01:12:21;;;;;;;2.13;0.69;;;;;;;1.59;50.51;98580.86;355038;150;859090;-60
2022/01/15 01:22:52;;;;;;;;;;;;;;;1.52;51.66;98591.00;361121;145;856594;-60
2022/01/15 01:23:20;;;;;;;4.29;0.73;;;;;;;1.55;51.75;98591.89;359626;147;857169;-60
2022/01/15 01:24:22;;;;;;;1.93;0.70;;;;;;;1.44;51.72;98603.72;359641;147;858495;-60
2022/01/15 01:25:31;;;;;;;3.87;0.96;;;;;;;1.34;52.03;98576.45;361104;147;866647;-60
2022/01/15 01:26:34;;;;;;;2.99;0.71;;;;;;;1.29;52.47;98600.22;359896;147;857748;-59
2022/01/15 01:27:44;;;;;;;4.36;0.88;;;;;;;1.36;52.64;98598.55;361554;146;858604;-59
2022/01/15 01:28:41;;;;;;;2.38;0.64;;;;;;;1.00;53.04;98607.61;350292;151;864450;-59
2022/01/15 01:31:11;;;;;;;2.30;0.81;;;;;;;1.35;52.90;98606.20;361071;147;865180;-59
2022/01/15 01:33:28;;;;;;;1.61;0.69;;;;;;;;;;360377;147;866649;-60
2022/01/15 01:34:18;;;;;;;2.78;0.80;;;;;;;;;;358897;147;858046;-60
2022/01/15 01:35:37;;;;;;;2.05;0.77;;;;;;;;;;360435;146;857230;-60
2022/01/15 01:36:44;;;;;;;2.46;0.79;;;;;;;;;;361298;146;860232;-59
2022/01/15 01:37:44;;;;;;;2.95;0.87;;;;;;;;;;360230;146;859414;-59
2022/01/15 01:38:58;;;;;;;4.31;1.03;;;;;;;;;;360028;146;859301;-60
2022/01/15 01:40:16;;;;;;;2.09;1.00;;;;;;;;;;359994;147;857646;-60
2022/01/15 01:41:01;;;;;;;3.19;0.90;;;;;;;;;;360680;146;857648;-60
2022/01/15 01:42:14;;;;;;;2.36;0.93;;;;;;;;;;361645;146;857466;-60
2022/01/15 01:44:24;;;;;;;5.43;1.06;;;;;;;;;;359503;146;857323;-59
2022/01/15 01:45:26;;;;;;;4.09;1.89;;;;;;;;;;359011;146;859489;-59
2022/01/15 01:47:39;;;;;;;2.16;0.54;;;;;;;;;;360655;147;864826;-58
2022/01/15 01:48:32;;;;;;;4.70;1.07;;;;;;;;;;358510;147;857277;-59
2022/01/15 01:49:34;;;;;;;1.15;0.76;;;;;;;;;;360734;146;860292;-60
2022/01/15 01:50:35;;;;;;;1.62;0.65;;;;;;;;;;359595;147;865227;-60
2022/01/15 01:51:39;;;;;;;3.40;0.94;;;;;;;;;;361168;146;857305;-59
2022/01/15 01:52:41;;;;;;;2.12;0.94;;;;;;;;;;359264;146;857496;-60
2022/01/15 01:53:42;;;;;;;2.35;0.83;;;;;;;;;;361311;145;856937;-60
2022/01/15 01:54:44;;;;;;;4.02;0.67;;;;;;;;;;362056;146;856290;-60
2022/01/15 01:55:45;;;;;;;3.67;0.76;;;;;;;;;;361123;145;857390;-60
2022/01/15 01:56:48;;;;;;;3.09;0.80;;;;;;;;;;359235;147;865287;-60
2022/01/15 01:57:50;;;;;;;2.85;0.79;;;;;;;;;;359615;146;865837;-60
2022/01/15 01:58:52;;;;;;;3.61;0.83;;;;;;;;;;360433;147;858897;-60
2022/01/15 01:59:53;;;;;;;2.49;0.88;;;;;;;;;;359837;147;858966;-60
2022/01/15 02:00:55;;;;;;;3.44;1.03;;;;;;;;;;360028;146;858037;-60
2022/01/15 02:01:57;;;;;;;2.72;1.00;;;;;;;;;;362069;146;865448;-59
2022/01/15 02:02:58;;;;;;;5.40;0.90;;;;;;;;;;361611;146;866047;-59
2022/01/15 02:14:06;;;;;;;5.66;0.88;;;;;;;0.53;70.42;98669.96;371276;142;880094;-61
2022/01/15 02:15:10;;;;;;;1.79;0.65;;;;;;;0.56;70.61;98673.41;362796;145;857617;-62
2022/01/15 02:16:14;;;;;;;4.39;0.76;;;;;;;0.57;69.97;98670.03;360656;145;857656;-63
2022/01/15 02:17:18;;;;;;;3.26;0.76;;;;;;;0.51;67.34;98677.56;360524;145;859501;-63
2022/01/15 02:18:20;;;;;;;2.98;0.74;;;;;;;0.37;63.64;98672.32;363175;144;857098;-63
2022/01/15 02:19:24;;;;;;;4.25;1.04;;;;;;;0.53;64.90;98672.51;363480;145;858560;-64
2022/01/15 02:24:11;;;;;;;1.58;0.82;;;;;;;0.49;62.50;98675.86;362976;144;866644;-64
2022/01/15 02:25:13;;;;;;;3.16;1.00;;;;;;;0.50;62.42;98678.41;362098;145;857259;-63
2022/01/15 02:26:25;;;;;;;4.11;0.94;;;;;;;0.51;61.97;98669.09;360980;145;857295;-63
2022/01/15 02:27:28;;;;;;;4.88;0.81;;;;;;;0.66;62.22;98678.61;364422;145;859234;-64
2022/01/15 02:28:32;;;;;;;2.13;0.73;;;;;;;0.83;61.94;98678.78;363092;145;857594;-64
2022/01/15 02:29:34;;;;;;;2.31;0.74;;;;;;;0.83;61.27;98683.88;361638;145;857282;-65
2022/01/15 02:30:36;;;;;;;2.23;0.86;;;;;;;0.82;60.24;98682.17;363523;145;857187;-63
2022/01/15 02:31:38;;;;;;;5.39;0.89;;;;;;;0.91;60.47;98686.53;362831;145;858927;-65
2022/01/15 02:32:40;;;;;;;3.03;0.91;;;;;;;0.85;60.15;98688.17;361651;145;859162;-64
2022/01/15 02:33:45;;;;;;;1.95;0.87;;;;;;;0.89;60.33;98691.59;363202;145;859053;-64
2022/01/15 02:34:47;;;;;;;5.49;1.46;;;;;;;0.58;60.06;98679.38;355257;148;857270;-64
2022/01/15 02:35:48;;;;;;;2.05;0.69;;;;;;;0.71;60.72;98689.72;356501;148;865281;-66
2022/01/15 02:36:50;;;;;;;1.13;0.77;;;;;;;0.73;60.05;98686.33;362120;145;857838;-63
2022/01/15 02:37:52;;;;;;;1.71;0.69;;;;;;;;;;363046;145;857717;-63
2022/01/15 02:38:54;;;;;;;2.53;0.91;;;;;;;;;;364523;145;858974;-65
2022/01/15 02:39:56;;;;;;;3.83;0.73;;;;;;;;;;362378;145;857302;-63
2022/01/15 02:40:58;;;;;;;2.91;0.90;;;;;;;;;;362132;145;858991;-62
2022/01/15 02:42:00;;;;;;;5.10;1.16;;;;;;;;;;362881;145;859565;-62
2022/01/15 02:43:05;;;;;;;1.17;0.56;;;;;;;;;;361318;145;857836;-63
2022/01/15 02:44:16;;;;;;;4.82;0.70;;;;;;;;;;364072;144;866019;-65
2022/01/15 02:45:19;;;;;;;3.49;0.95;;;;;;;;;;360435;145;857255;-66
2022/01/15 02:46:20;;;;;;;4.94;1.25;;;;;;;;;;363041;145;859436;-64
2022/01/15 02:48:42;;;;;;;0.56;0.52;;;;;;;;;;362853;145;857404;-64
2022/01/15 02:49:44;;;;;;;2.77;0.95;;;;;;;;;;361161;144;865811;-64
2022/01/15 02:50:46;;;;;;;2.17;0.79;;;;;;;;;;362151;145;857473;-64
2022/01/15 02:51:47;;;;;;;2.35;0.83;;;;;;;;;;362575;144;856418;-64
2022/01/15 02:52:49;;;;;;;4.24;1.14;;;;;;;;;;362208;145;857573;-64
2022/01/15 02:53:55;;;;;;;1.26;0.70;;;;;;;;;;362875;145;866298;-64
2022/01/15 02:54:54;;;;;;;4.86;1.44;;;;;;;;;;361346;145;867152;-63
2022/01/15 02:55:56;;;;;;;2.03;0.91;;;;;;;;;;364090;144;865855;-63
2022/01/15 02:56:58;;;;;;;2.29;0.72;;;;;;;;;;363958;145;864841;-63
2022/01/15 02:57:59;;;;;;;2.61;0.81;;;;;;;;;;362788;145;864778;-64
2022/01/15 02:59:02;;;;;;;2.59;0.88;;;;;;;;;;363497;145;866732;-64
2022/01/15 03:00:05;;;;;;;4.72;0.83;;;;;;;;;;360263;147;863717;-65
2022/01/15 03:01:06;;;;;;;3.16;0.89;;;;;;;;;;359843;147;856174;-63
2022/01/15 03:02:08;;;;;;;2.38;0.69;;;;;;;;;;355810;148;856155;-64
2022/01/15 03:03:10;;;;;;;3.20;0.80;;;;;;;;;;356751;147;864360;-65
2022/01/15 03:04:11;;;;;;;4.03;0.90;;;;;;;;;;363201;145;863788;-64
2022/01/15 03:05:13;;;;;;;0.90;0.59;;;;;;;;;;361513;145;863562;-65
2022/01/15 03:06:15;;;;;;;1.82;0.70;;;;;;;;;;363085;145;863584;-63
2022/01/15 03:07:17;;;;;;;1.98;0.90;;;;;;;;;;361732;145;856877;-64
2022/01/15 03:08:19;;;;;;;2.19;0.74;;;;;;;;;;362127;145;856659;-65
2022/01/15 03:09:20;;;;;;;1.36;0.69;;;;;;;;;;363616;144;863700;-64
2022/01/15 03:10:23;;;;;;;2.01;0.91;;;;;;;;;;365070;145;863559;-64
2022/01/15 03:11:27;;;;;;;1.88;0.89;;;;;;;;;;363430;145;856604;-64
2022/01/15 03:14:31;;;;;;;3.79;0.76;;;;;;;0.97;56.42;98723.11;371385;142;875690;-59
2022/01/15 03:15:32;;;;;;;2.63;0.79;;;;;;;0.99;56.63;98729.08;363832;146;858844;-60
2022/01/15 03:16:34;;;;;;;6.13;1.65;;;;;;;1.09;56.53;98726.67;362052;146;857735;-59
2022/01/15 03:17:35;;;;;;;2.56;0.84;;;;;;;1.14;55.82;98733.50;363726;144;857188;-59
2022/01/15 03:18:37;;;;;;;1.94;0.74;;;;;;;0.90;56.56;98725.59;363090;146;864907;-59
2022/01/15 03:19:39;;;;;;;2.18;0.96;;;;;;;1.03;56.42;98735.09;362557;146;864952;-59
2022/01/15 03:20:41;;;;;;;3.04;0.79;;;;;;;1.05;56.51;98735.96;364526;145;866707;-59
2022/01/15 03:21:42;;;;;;;2.25;0.90;;;;;;;;;;363940;144;857351;-60
2022/01/15 03:22:44;;;;;;;4.48;0.88;;;;;;;;;;363719;144;866336;-60
2022/01/15 03:23:45;;;;;;;2.76;0.62;;;;;;;;;;364022;146;863580;-60
2022/01/15 03:24:48;;;;;;;2.14;0.94;;;;;;;;;;364010;145;859951;-59
2022/01/15 03:25:49;;;;;;;5.37;0.80;;;;;;;;;;363861;146;858524;-59
2022/01/15 03:26:51;;;;;;;5.42;0.84;;;;;;;;;;363599;146;858893;-59
2022/01/15 03:27:54;;;;;;;2.40;0.84;;;;;;;;;;364413;146;864365;-59
2022/01/15 03:28:56;;;;;;;2.64;1.01;;;;;;;;;;364328;146;857269;-59
2022/01/15 03:29:57;;;;;;;2.49;1.25;;;;;;;;;;362338;146;857768;-59
2022/01/15 03:30:59;;;;;;;2.76;0.92;;;;;;;;;;364008;146;864930;-59
2022/01/15 03:43:54;;;;;;;2.67;0.71;;;;;;;1.46;54.05;98752.53;372135;141;879145;-59
2022/01/15 03:44:56;;;;;;;1.29;0.77;;;;;;;1.28;53.73;98753.19;364962;145;857197;-59
2022/01/15 03:45:58;;;;;;;1.94;0.70;;;;;;;1.35;54.20;98751.58;363812;145;867644;-60
2022/01/15 03:46:59;;;;;;;1.65;0.67;;;;;;;1.41;53.84;98754.19;364428;146;865785;-59
2022/01/15 03:48:01;;;;;;;2.83;0.77;;;;;;;1.37;53.95;98758.38;364987;147;857199;-59
2022/01/15 03:49:03;;;;;;;2.07;0.76;;;;;;;1.20;54.08;98744.61;364905;144;857598;-58
2022/01/15 03:50:06;;;;;;;1.25;0.47;;;;;;;1.23;54.12;98762.48;365208;146;857340;-59
2022/01/15 03:51:08;;;;;;;1.09;0.60;;;;;;;1.34;54.39;98744.77;364393;145;861376;-59
2022/01/15 03:52:10;;;;;;;3.04;0.81;;;;;;;1.24;54.02;98752.32;360429;147;857460;-58
2022/01/15 03:53:11;;;;;;;2.77;0.98;;;;;;;1.23;53.61;98745.52;358360;147;864957;-59
2022/01/15 03:54:13;;;;;;;1.70;0.70;;;;;;;1.20;53.97;98763.33;359338;147;859047;-59
2022/01/15 03:55:16;;;;;;;2.79;0.81;;;;;;;1.00;54.19;98765.64;359153;147;860303;-58
2022/01/15 03:56:18;;;;;;;2.44;0.72;;;;;;;1.04;54.18;98752.09;357207;147;865745;-59
2022/01/15 03:57:20;;;;;;;1.56;0.65;;;;;;;1.18;54.57;98752.25;358128;147;857163;-59
2022/01/15 03:58:22;;;;;;;2.97;1.17;;;;;;;1.24;53.99;98754.88;358612;147;865294;-59
2022/01/15 03:59:24;;;;;;;2.42;0.83;;;;;;;1.18;53.85;98742.06;358761;147;857297;-61
2022/01/15 04:00:27;;;;;;;2.01;0.65;;;;;;;1.22;54.34;98760.78;357357;147;864874;-60
2022/01/15 04:01:29;;;;;;;2.08;0.81;;;;;;;1.31;54.19;98753.22;360832;147;857250;-60
2022/01/15 04:02:31;;;;;;;3.65;0.88;;;;;;;1.35;54.19;98754.96;358326;147;857177;-59
2022/01/15 04:03:33;;;;;;;2.84;0.80;;;;;;;1.25;53.59;98776.11;358111;148;858762;-60
2022/01/15 04:04:34;;;;;;;4.84;0.71;;;;;;;1.27;54.02;98759.13;357235;148;864833;-59
2022/01/15 04:05:36;;;;;;;1.61;0.76;;;;;;;1.37;54.26;98762.64;358688;148;865181;-58
2022/01/15 04:06:38;;;;;;;1.93;0.60;;;;;;;1.35;54.03;98761.77;357665;147;864883;-58
2022/01/15 04:07:40;;;;;;;4.22;1.23;;;;;;;1.45;54.00;98756.77;357704;148;858969;-58
2022/01/15 04:08:42;;;;;;;2.58;0.67;;;;;;;1.49;54.02;98764.44;358090;148;858982;-59
2022/01/15 04:09:44;;;;;;;2.31;0.80;;;;;;;1.55;53.86;98759.40;357877;147;857843;-59
2022/01/15 04:10:45;;;;;;;1.09;0.66;;;;;;;;;;357627;147;865090;-59
2022/01/15 04:11:47;;;;;;;3.22;0.97;;;;;;;;;;358009;148;865515;-59
2022/01/15 04:12:48;;;;;;;2.13;0.64;;;;;;;;;;357910;148;860111;-58
2022/01/15 04:13:50;;;;;;;1.76;0.65;;;;;;;;;;355831;147;866791;-59
2022/01/15 04:14:51;;;;;;;1.11;0.56;;;;;;;;;;358544;148;859096;-59
2022/01/15 04:15:53;;;;;;;2.06;0.69;;;;;;;;;;358453;147;858274;-59
2022/01/15 04:16:55;;;;;;;5.73;0.83;;;;;;;;;;358697;147;857527;-59
2022/01/15 04:17:57;;;;;;;2.66;0.91;;;;;;;;;;357954;148;858426;-58
2022/01/15 04:18:58;;;;;;;3.71;1.03;;;;;;;;;;358591;147;859593;-60
2022/01/15 04:20:00;;;;;;;1.44;0.88;;;;;;;;;;358574;147;858872;-57
2022/01/15 04:21:02;;;;;;;1.21;0.55;;;;;;;;;;358244;147;865749;-60
2022/01/15 04:22:03;;;;;;;3.33;0.84;;;;;;;;;;358315;147;864767;-60
2022/01/15 04:23:05;;;;;;;3.61;0.70;;;;;;;;;;357475;147;857220;-57
2022/01/15 04:24:07;;;;;;;1.98;0.60;;;;;;;;;;356983;150;866562;-58
2022/01/15 04:25:09;;;;;;;3.23;0.72;;;;;;;;;;359420;147;858333;-57
2022/01/15 04:26:11;;;;;;;2.64;0.64;;;;;;;;;;359110;149;860356;-58
2022/01/15 04:27:13;;;;;;;2.09;0.69;;;;;;;;;;357373;149;858065;-59
2022/01/15 04:28:15;;;;;;;2.14;0.89;;;;;;;;;;358877;147;864632;-59
2022/01/15 04:29:16;;;;;;;4.09;0.83;;;;;;;;;;356036;148;864926;-59
2022/01/15 04:30:18;;;;;;;4.41;0.94;;;;;;;;;;357505;149;857384;-59
2022/01/15 04:31:20;;;;;;;1.09;0.66;;;;;;;;;;356072;147;857274;-59
2022/01/15 04:32:22;;;;;;;3.13;0.99;;;;;;;;;;357521;148;856356;-61
2022/01/15 04:33:23;;;;;;;3.39;0.97;;;;;;;;;;356560;148;857405;-58
2022/01/15 04:34:25;;;;;;;2.10;0.78;;;;;;;;;;358378;148;858979;-58
2022/01/15 04:35:27;;;;;;;4.46;0.93;;;;;;;;;;358048;148;856909;-58
2022/01/15 04:36:28;;;;;;;5.65;0.92;;;;;;;;;;357607;148;857996;-58
2022/01/15 04:37:40;;;;;;;2.15;0.84;;;;;;;;;;358099;150;866296;-58
2022/01/15 04:38:39;;;;;;;2.51;0.69;;;;;;;;;;357943;149;866205;-59
2022/01/15 04:39:42;;;;;;;3.45;0.80;;;;;;;;;;354905;148;859475;-60
2022/01/15 04:40:43;;;;;;;8.96;0.79;;;;;;;;;;354511;149;864499;-59
2022/01/15 04:41:45;;;;;;;4.36;0.84;;;;;;;;;;357628;147;860251;-58
2022/01/15 04:42:47;;;;;;;3.84;0.84;;;;;;;;;;357481;148;857373;-60
2022/01/15 04:43:48;;;;;;;3.01;0.90;;;;;;;;;;357375;150;857461;-60
2022/01/15 04:44:50;;;;;;;2.69;0.77;;;;;;;;;;358328;150;865019;-60
2022/01/15 04:45:52;;;;;;;3.20;0.69;;;;;;;;;;357833;149;864833;-60
2022/01/15 04:46:53;;;;;;;4.21;0.94;;;;;;;;;;357073;149;864905;-58
2022/01/15 04:47:55;;;;;;;2.91;0.89;;;;;;;;;;359099;150;864627;-57
2022/01/15 04:48:57;;;;;;;2.36;0.70;;;;;;;;;;356980;150;864480;-58
2022/01/15 04:49:59;;;;;;;4.78;0.81;;;;;;;;;;357620;148;857421;-57
2022/01/15 04:51:00;;;;;;;3.39;0.70;;;;;;;;;;358291;148;857385;-58
2022/01/15 04:52:02;;;;;;;2.61;0.55;;;;;;;;;;358493;150;857184;-58
2022/01/15 04:53:04;;;;;;;6.15;1.43;;;;;;;;;;359167;147;856884;-58
2022/01/15 04:54:06;;;;;;;4.27;1.09;;;;;;;;;;356509;149;857825;-58
2022/01/15 04:55:08;;;;;;;2.58;0.80;;;;;;;;;;359064;148;857847;-58
2022/01/15 04:56:10;;;;;;;1.76;0.60;;;;;;;;;;355852;148;857529;-57
2022/01/15 04:57:12;;;;;;;2.11;0.86;;;;;;;;;;357880;148;857805;-58
2022/01/15 04:58:14;;;;;;;2.99;0.83;;;;;;;;;;356740;150;864909;-59
2022/01/15 04:59:16;;;;;;;2.23;0.78;;;;;;;;;;356479;150;857570;-59
2022/01/15 05:00:18;;;;;;;2.41;0.73;;;;;;;;;;356873;148;857600;-59
2022/01/15 05:01:19;;;;;;;2.41;0.67;;;;;;;;;;356479;148;857779;-60
2022/01/15 05:02:21;;;;;;;1.69;0.61;;;;;;;;;;356036;149;857265;-60
2022/01/15 05:03:23;;;;;;;3.51;0.73;;;;;;;;;;357151;148;860783;-60
2022/01/15 05:04:24;;;;;;;2.77;0.76;;;;;;;;;;357755;148;864606;-59
2022/01/15 05:05:26;;;;;;;2.94;0.96;;;;;;;;;;355262;150;857199;-60
2022/01/15 05:06:28;;;;;;;2.01;1.59;;;;;;;;;;357674;148;859377;-59
2022/01/15 05:07:29;;;;;;;1.06;0.62;;;;;;;;;;358973;148;857384;-60
2022/01/15 05:08:32;;;;;;;3.74;0.91;;;;;;;;;;357616;150;860488;-59
2022/01/15 05:09:33;;;;;;;1.71;0.74;;;;;;;;;;358029;148;866703;-59
2022/01/15 05:10:35;;;;;;;1.02;0.72;;;;;;;;;;358983;148;857376;-59
2022/01/15 05:11:48;;;;;;;2.56;1.14;;;;;;;;;;357651;150;866463;-60
2022/01/15 05:14:33;;;;;;;2.82;0.86;;;;;;;1.73;53.99;98794.45;369943;142;881217;-62
2022/01/15 05:15:35;;;;;;;2.03;0.89;;;;;;;1.63;54.14;98813.06;364335;147;860043;-61
2022/01/15 05:16:37;;;;;;;1.38;0.73;;;;;;;1.71;54.05;98817.42;363958;147;857666;-61
2022/01/15 05:17:39;;;;;;;2.75;0.78;;;;;;;1.63;53.80;98810.52;364926;146;857102;-62
2022/01/15 05:18:41;;;;;;;3.15;1.04;;;;;;;1.74;53.72;98806.37;364433;147;857940;-62
2022/01/15 05:19:42;;;;;;;2.93;0.99;;;;;;;1.53;53.70;98807.88;365014;147;864487;-61
2022/01/15 05:20:45;;;;;;;1.44;0.77;;;;;;;1.41;54.29;98815.40;364671;146;867513;-57
2022/01/15 05:21:47;;;;;;;3.57;0.87;;;;;;;1.48;54.43;98821.41;363731;146;859964;-59
2022/01/15 05:22:50;;;;;;;4.83;0.83;;;;;;;1.62;54.19;98824.11;362986;147;864946;-58
2022/01/15 05:23:52;;;;;;;2.21;0.74;;;;;;;1.65;54.35;98819.91;365232;146;857223;-59
2022/01/15 05:24:53;;;;;;;1.29;0.79;;;;;;;1.60;53.65;98819.02;364749;146;857206;-61
2022/01/15 05:25:55;;;;;;;1.68;0.92;;;;;;;;;;362899;147;864717;-59
2022/01/15 05:26:56;;;;;;;1.71;0.79;;;;;;;;;;364347;147;864975;-61
2022/01/15 05:27:58;;;;;;;3.80;0.99;;;;;;;;;;363268;146;865361;-60
2022/01/15 05:29:00;;;;;;;3.21;0.81;;;;;;;;;;364504;146;857362;-60
2022/01/15 05:30:05;;;;;;;2.50;0.79;;;;;;;;;;363848;147;866412;-60
2022/01/15 05:31:06;;;;;;;2.29;1.09;;;;;;;;;;364301;146;857199;-62
2022/01/15 05:32:08;;;;;;;1.24;0.81;;;;;;;;;;362428;146;865600;-61
2022/01/15 05:33:09;;;;;;;2.43;0.74;;;;;;;;;;362180;147;865005;-60
2022/01/15 05:34:11;;;;;;;4.69;0.61;;;;;;;;;;362379;146;866009;-60
2022/01/15 05:35:12;;;;;;;3.76;0.88;;;;;;;;;;364721;147;857607;-60
2022/01/15 05:36:16;;;;;;;1.67;0.72;;;;;;;;;;362952;147;865792;-66
2022/01/15 05:37:17;;;;;;;5.10;0.90;;;;;;;;;;361688;147;857246;-61
2022/01/15 05:38:19;;;;;;;1.21;0.70;;;;;;;;;;363627;146;866653;-61
2022/01/15 05:39:20;;;;;;;3.79;1.11;;;;;;;;;;363761;146;866611;-59
2022/01/15 05:40:23;;;;;;;2.05;0.51;;;;;;;;;;364323;145;859217;-58
2022/01/15 05:41:25;;;;;;;1.21;0.71;;;;;;;;;;362952;146;866451;-59
2022/01/15 05:42:27;;;;;;;1.16;0.46;;;;;;;;;;363271;146;856324;-57
2022/01/15 05:43:28;;;;;;;1.66;0.61;;;;;;;;;;363752;147;858215;-56
2022/01/15 05:44:30;;;;;;;2.16;0.74;;;;;;;;;;362122;146;857581;-56
2022/01/15 05:45:32;;;;;;;1.41;0.76;;;;;;;;;;363150;146;864904;-60
2022/01/15 05:46:33;;;;;;;2.23;0.95;;;;;;;;;;362975;147;857358;-60
2022/01/15 05:47:35;;;;;;;1.40;0.71;;;;;;;;;;362636;147;857135;-60
2022/01/15 05:54:10;;;;;;;1.75;0.76;;;;;;;1.68;51.92;98827.59;371711;141;868255;-61
2022/01/15 05:55:11;;;;;;;2.58;0.94;;;;;;;1.66;52.32;98834.37;363667;145;857193;-61
2022/01/15 05:56:14;;;;;;;2.61;0.79;;;;;;;1.75;51.94;98838.70;362982;145;859350;-62
2022/01/15 05:57:15;;;;;;;1.59;0.79;;;;;;;1.71;51.59;98836.97;364333;145;859025;-61
2022/01/15 05:58:17;;;;;;;1.50;0.76;;;;;;;1.53;51.85;98835.06;363876;145;863748;-62
2022/01/15 05:59:19;;;;;;;2.45;0.60;;;;;;;1.74;51.77;98837.86;360220;145;866037;-62
2022/01/15 06:00:21;;;;;;;3.81;0.68;;;;;;;1.76;51.58;98837.86;362422;145;864930;-61
2022/01/15 06:01:23;;;;;;;2.07;0.69;;;;;;;1.82;51.70;98840.47;363734;145;859388;-60
2022/01/15 06:02:25;;;;;;;2.39;0.73;;;;;;;1.77;51.37;98839.57;363053;145;859666;-59
2022/01/15 06:03:27;;;;;;;1.57;0.57;;;;;;;1.48;52.00;98831.61;364144;145;860549;-60
2022/01/15 06:04:29;;;;;;;1.95;0.59;;;;;;;1.62;51.87;98835.19;363351;145;858844;-60
2022/01/15 06:05:31;;;;;;;1.47;0.72;;;;;;;1.69;51.65;98821.66;362773;145;864945;-59
2022/01/15 06:06:33;;;;;;;0.91;0.66;;;;;;;1.50;51.01;98828.25;362031;145;865021;-60
2022/01/15 06:07:34;;;;;;;0.84;0.54;;;;;;;1.65;51.15;98830.12;362695;145;857487;-59
2022/01/15 06:08:36;;;;;;;2.11;0.85;;;;;;;1.80;51.20;98833.66;362159;144;865139;-61
2022/01/15 06:09:38;;;;;;;2.87;0.84;;;;;;;1.81;50.90;98833.66;361657;144;864366;-61
2022/01/15 06:10:41;;;;;;;1.95;0.67;;;;;;;1.82;51.18;98827.71;361949;145;865191;-61
2022/01/15 06:11:43;;;;;;;1.11;0.88;;;;;;;1.84;51.12;98835.40;351440;139;857569;-61
2022/01/15 06:12:45;;;;;;;2.12;0.88;;;;;;;1.91;50.70;98839.72;341210;155;856375;-59
2022/01/15 06:13:48;;;;;;;3.02;1.21;;;;;;;1.83;50.79;98843.90;340410;155;866678;-60
2022/01/15 06:14:49;;;;;;;3.14;0.97;;;;;;;1.90;50.79;98833.74;339575;155;858784;-60
2022/01/15 06:15:51;;;;;;;1.61;0.69;;;;;;;1.98;51.02;98843.16;345885;149;857301;-60
2022/01/15 06:16:53;;;;;;;2.36;1.35;;;;;;;2.00;50.82;98836.38;345715;152;858998;-60
2022/01/15 06:17:55;;;;;;;2.81;0.69;;;;;;;2.01;50.73;98844.06;346213;152;857810;-59
2022/01/15 06:18:57;;;;;;;1.01;0.67;;;;;;;1.99;50.39;98838.09;346111;153;857178;-60
2022/01/15 06:19:59;;;;;;;1.72;0.71;;;;;;;2.00;50.74;98841.48;346389;153;858981;-60
2022/01/15 06:21:01;;;;;;;1.91;0.58;;;;;;;2.06;51.26;98838.98;344331;155;860501;-59
2022/01/15 06:22:04;;;;;;;2.49;0.81;;;;;;;1.98;51.14;98845.72;346175;152;858582;-60
2022/01/15 06:23:09;;;;;;;2.43;0.76;;;;;;;1.90;50.89;98845.66;346797;152;864888;-60
2022/01/15 06:24:11;;;;;;;2.38;0.81;;;;;;;2.02;50.89;98843.22;346477;153;858639;-60
2022/01/15 06:25:12;;;;;;;1.61;0.76;;;;;;;;;;349029;152;858142;-59
2022/01/15 06:26:15;;;;;;;2.80;0.69;;;;;;;;;;346201;152;857753;-60
2022/01/15 06:27:19;;;;;;;2.74;0.68;;;;;;;;;;346569;152;857301;-60
2022/01/15 06:28:20;;;;;;;5.90;0.84;;;;;;;;;;348265;152;857399;-60
2022/01/15 06:29:22;;;;;;;1.43;0.85;;;;;;;;;;348086;153;858701;-60
2022/01/15 06:30:24;;;;;;;2.15;0.70;;;;;;;;;;347016;149;857258;-60
2022/01/15 06:31:28;;;;;;;1.71;0.71;;;;;;;;;;346195;152;857291;-60
2022/01/15 06:32:31;;;;;;;4.06;0.90;;;;;;;;;;346537;152;857396;-60
2022/01/15 06:33:32;;;;;;;6.71;1.44;;;;;;;;;;345017;149;860344;-60
2022/01/15 06:34:34;;;;;;;1.32;0.52;;;;;;;;;;345082;152;857333;-62
2022/01/15 06:35:35;;;;;;;2.18;0.80;;;;;;;;;;344377;152;866847;-60
2022/01/15 06:36:37;;;;;;;1.48;0.79;;;;;;;;;;347264;153;861251;-60
2022/01/15 06:37:39;;;;;;;1.42;0.70;;;;;;;;;;340918;155;866628;-60
2022/01/15 06:38:40;;;;;;;3.63;0.61;;;;;;;;;;341219;155;863928;-60
2022/01/15 06:39:42;;;;;;;3.47;1.59;;;;;;;;;;346909;152;857397;-60
2022/01/15 06:40:44;;;;;;;2.55;0.81;;;;;;;;;;341559;154;857099;-60
2022/01/15 06:41:45;;;;;;;1.13;0.60;;;;;;;;;;345445;152;864667;-60
2022/01/15 06:42:47;;;;;;;1.33;0.78;;;;;;;;;;345530;152;858879;-60
2022/01/15 06:43:49;;;;;;;1.77;0.78;;;;;;;;;;346816;149;858512;-60
2022/01/15 06:44:50;;;;;;;3.24;0.80;;;;;;;;;;344305;152;864987;-57
2022/01/15 06:45:52;;;;;;;6.48;0.84;;;;;;;;;;346219;152;863414;-58
2022/01/15 06:46:54;;;;;;;3.02;0.93;;;;;;;;;;344977;152;856410;-56
2022/01/15 06:47:56;;;;;;;1.49;0.75;;;;;;;;;;346590;152;861181;-58
2022/01/15 06:48:58;;;;;;;2.25;0.60;;;;;;;;;;346093;152;856039;-58
2022/01/15 06:50:04;;;;;;;2.31;0.75;;;;;;;;;;345935;152;863849;-57
2022/01/15 06:51:03;;;;;;;2.64;0.55;;;;;;;;;;345882;152;864204;-58
2022/01/15 06:54:09;;;;;;;1.70;0.71;;;;;;;2.36;52.19;98883.52;370396;141;881237;-58
2022/01/15 06:55:11;;;;;;;3.23;0.67;;;;;;;2.28;52.15;98893.66;363917;144;858519;-57
2022/01/15 06:56:13;;;;;;;1.66;0.87;;;;;;;2.36;52.18;98896.30;364203;144;857225;-58